Time;durP1;ratioP1;P1;durP2;ratioP2;P2;SDS_P1;SDS_P2;PMS_P1;PMS_P2;Temp;Humidity;BMP_temperature;BMP_pressure;BME280_temperature;BME280_humidity;BME280_pressure;Samples;Min_cycle;Max_cycle;Signal;HPM_P1;HPM_P2
2022/01/01 00:00:34;;;;;;;17.23;13.98;;;;;;;4.40;91.25;99278.77;1652311;84;21038;-69
2022/01/01 00:03:01;;;;;;;;;;;;;;;4.44;91.37;99273.45;1678751;84;21050;-70
2022/01/01 00:05:27;;;;;;;17.67;14.17;;;;;;;4.45;91.48;99269.84;1681099;84;20162;-70
2022/01/01 00:07:53;;;;;;;21.33;17.02;;;;;;;4.38;92.00;99266.25;1686057;84;21445;-70
2022/01/01 00:10:21;;;;;;;24.72;17.10;;;;;;;4.37;92.12;99265.95;1669139;86;21070;-69
2022/01/01 00:12:48;;;;;;;14.57;12.40;;;;;;;4.42;92.09;99262.26;1668273;84;21075;-69
2022/01/01 00:15:15;;;;;;;14.17;11.73;;;;;;;4.49;91.67;99261.89;1650644;86;21489;-70
2022/01/01 00:17:44;;;;;;;18.90;14.23;;;;;;;4.56;91.36;99257.22;1694833;83;21047;-69
2022/01/01 00:20:12;;;;;;;22.35;14.95;;;;;;;4.57;91.33;99253.59;1686036;84;20980;-70
2022/01/01 00:22:41;;;;;;;14.40;12.40;;;;;;;4.62;91.43;99247.30;1681072;83;21090;-71
2022/01/01 00:25:09;;;;;;;18.97;14.27;;;;;;;4.69;91.40;99246.92;1699271;83;21044;-69
2022/01/01 00:27:36;;;;;;;14.67;13.07;;;;;;;4.70;91.31;99242.45;1685188;83;21146;-69
2022/01/01 00:30:06;;;;;;;16.90;14.57;;;;;;;4.69;91.40;99240.33;1694992;83;21029;-68
2022/01/01 00:32:36;;;;;;;13.60;11.90;;;;;;;4.71;91.59;99240.13;1694175;83;21057;-67
2022/01/01 00:35:02;;;;;;;17.37;12.97;;;;;;;4.77;91.51;99244.20;1712280;82;21022;-71
2022/01/01 00:37:29;;;;;;;14.50;11.07;;;;;;;4.86;91.27;99240.50;1720373;82;21030;-75
2022/01/01 00:39:56;;;;;;;12.82;8.35;;;;;;;4.94;91.15;99222.95;1711695;82;21054;-70
2022/01/01 00:42:24;;;;;;;;;;;;;;;4.97;90.90;99229.17;1721895;82;21061;-69
2022/01/01 00:44:50;;;;;;;7.62;5.83;;;;;;;4.92;90.82;99202.52;1713044;82;20140;-69
2022/01/01 00:47:17;;;;;;;7.35;6.28;;;;;;;4.99;91.05;99213.49;1720268;82;21107;-72
2022/01/01 00:49:43;;;;;;;7.50;6.42;;;;;;;5.00;91.16;99206.38;1704929;82;21108;-70
2022/01/01 00:52:09;;;;;;;7.58;6.08;;;;;;;5.01;91.43;99208.84;1696025;82;20996;-68
2022/01/01 00:54:36;;;;;;;6.10;5.20;;;;;;;5.05;91.71;99194.28;1700400;82;21035;-70
2022/01/01 00:57:03;;;;;;;5.97;4.67;;;;;;;5.15;91.54;99195.33;1705651;82;21034;-70
2022/01/01 00:59:30;;;;;;;6.53;5.50;;;;;;;5.20;91.50;99194.30;1713806;82;21093;-70
2022/01/01 01:01:58;;;;;;;5.33;4.47;;;;;;;5.28;91.62;99194.70;1709474;82;21097;-69
2022/01/01 01:04:26;;;;;;;4.53;3.80;;;;;;;5.33;91.31;99195.47;1711968;82;20991;-69
2022/01/01 01:06:52;;;;;;;3.93;3.67;;;;;;;5.38;91.33;99184.66;1708542;82;22177;-69
2022/01/01 01:09:19;;;;;;;3.95;3.65;;;;;;;5.42;91.36;99184.61;1709358;82;21066;-69
2022/01/01 01:11:47;;;;;;;7.03;6.33;;;;;;;5.40;91.58;99186.63;1694710;82;21031;-69
2022/01/01 01:14:20;;;;;;;3.83;3.43;;;;;;;5.40;91.99;99181.84;1696938;82;21544;-70
2022/01/01 01:16:48;;;;;;;4.90;3.47;;;;;;;5.43;92.07;99182.81;1717335;82;21546;-69
2022/01/01 01:19:15;;;;;;;6.43;5.33;;;;;;;5.52;92.18;99185.68;1704239;82;21130;-69
2022/01/01 01:21:43;;;;;;;4.37;4.03;;;;;;;5.59;92.11;99177.30;1708291;82;20987;-68
2022/01/01 01:24:13;;;;;;;3.63;3.33;;;;;;;5.64;92.08;99165.69;1716772;82;21003;-71
2022/01/01 01:26:39;;;;;;;4.53;4.13;;;;;;;5.66;92.08;99170.28;1707901;82;21102;-69
2022/01/01 01:29:06;;;;;;;4.20;3.87;;;;;;;5.68;92.19;99173.26;1704479;82;21042;-71
2022/01/01 01:31:33;;;;;;;4.07;3.60;;;;;;;5.69;92.29;99166.47;1711621;82;21513;-70
2022/01/01 01:34:01;;;;;;;2.57;2.37;;;;;;;5.74;92.47;99157.97;1716795;82;21585;-70
2022/01/01 01:36:28;;;;;;;2.43;2.27;;;;;;;5.41;92.50;99093.14;1717207;82;20964;-69
2022/01/01 01:38:54;;;;;;;3.35;2.45;;;;;;;5.81;92.60;99159.67;1711973;82;21510;-70
2022/01/01 01:41:20;;;;;;;;;;;;;;;5.77;92.57;99156.28;1720278;82;21589;-69
2022/01/01 01:43:51;;;;;;;4.60;3.30;;;;;;;5.77;92.65;99148.35;1717290;82;20152;-70
2022/01/01 01:46:15;;;;;;;2.30;2.10;;;;;;;5.76;92.65;99146.19;1699852;82;21069;-71
2022/01/01 01:48:44;;;;;;;7.25;5.00;;;;;;;5.78;92.83;99138.92;1650267;85;21078;-70
2022/01/01 01:51:10;;;;;;;2.10;2.00;;;;;;;5.82;92.74;99135.36;1688430;82;21051;-68
2022/01/01 01:53:38;;;;;;;4.80;4.23;;;;;;;5.83;92.85;99133.05;1703099;83;21062;-70
2022/01/01 01:56:05;;;;;;;12.20;8.93;;;;;;;5.88;92.94;99124.06;1689558;83;21011;-68
2022/01/01 01:58:31;;;;;;;5.53;5.00;;;;;;;5.95;93.08;99124.11;1704103;83;21091;-69
2022/01/01 02:03:36;;;;;;;3.95;3.40;;;;;;;5.95;93.22;99122.79;1639516;86;21676;-70
2022/01/01 02:06:07;;;;;;;2.95;2.75;;;;;;;5.96;93.33;99116.03;1686821;84;21009;-69
2022/01/01 02:08:33;;;;;;;9.57;6.87;;;;;;;6.01;92.95;99121.58;1686904;84;21064;-68
2022/01/01 02:11:00;;;;;;;;;;;;;;;6.02;93.03;99113.95;1706184;83;20993;-69
2022/01/01 02:13:34;;;;;;;3.87;3.10;;;;;;;6.09;93.28;99117.98;1712930;82;20409;-71
2022/01/01 02:16:25;;;;;;;3.00;2.77;;;;;;;6.11;93.37;99113.84;1705172;82;21009;-70
2022/01/01 02:18:29;;;;;;;3.80;2.93;;;;;;;6.12;93.31;99113.66;1707529;82;21019;-70
2022/01/01 02:20:56;;;;;;;5.62;4.15;;;;;;;6.16;93.28;99118.03;1710483;82;21122;-69
2022/01/01 02:23:25;;;;;;;3.75;3.40;;;;;;;6.19;93.38;99111.86;1697230;83;21348;-68
2022/01/01 02:25:54;;;;;;;7.17;6.00;;;;;;;6.21;93.38;99107.70;1646719;85;21000;-67
2022/01/01 02:28:21;;;;;;;8.67;6.03;;;;;;;6.23;93.38;99105.69;1653784;85;21061;-69
2022/01/01 02:30:49;;;;;;;7.60;6.73;;;;;;;6.24;93.43;99099.41;1681154;85;21038;-69
2022/01/01 02:33:17;;;;;;;22.00;12.70;;;;;;;6.28;93.29;99096.69;1669399;85;21593;-69
2022/01/01 02:35:45;;;;;;;16.83;11.13;;;;;;;6.28;93.25;99088.74;1700409;83;21018;-68
2022/01/01 02:38:12;;;;;;;11.30;8.07;;;;;;;6.26;93.52;99096.06;1652473;85;21099;-69
2022/01/01 02:40:39;;;;;;;5.50;5.00;;;;;;;6.27;93.35;99091.58;1643045;86;21040;-70
2022/01/01 02:43:05;;;;;;;4.05;3.65;;;;;;;6.34;93.28;99091.94;1647063;86;21849;-69
2022/01/01 02:45:32;;;;;;;;;;;;;;;6.42;93.28;99084.37;1693663;83;20936;-69
2022/01/01 02:47:58;;;;;;;3.57;3.27;;;;;;;6.47;93.29;99081.16;1690334;84;20100;-69
2022/01/01 02:50:23;;;;;;;3.52;3.33;;;;;;;6.42;93.52;99068.48;1676835;84;21018;-68
2022/01/01 02:52:52;;;;;;;3.67;2.63;;;;;;;6.45;93.65;99080.53;1639453;87;21189;-68
2022/01/01 02:55:18;;;;;;;3.07;2.87;;;;;;;6.52;93.79;99081.41;1687861;83;20994;-69
2022/01/01 02:57:44;;;;;;;4.37;3.98;;;;;;;6.57;94.07;99085.11;1672657;84;21062;-69
2022/01/01 03:00:11;;;;;;;3.30;3.08;;;;;;;6.62;93.88;99078.71;1674079;83;21593;-69
2022/01/01 03:02:38;;;;;;;3.73;3.43;;;;;;;6.67;93.90;99084.77;1707287;83;21031;-68
2022/01/01 03:05:06;;;;;;;4.67;4.20;;;;;;;6.72;93.85;99080.20;1708846;84;21493;-68
2022/01/01 03:07:38;;;;;;;4.40;4.03;;;;;;;6.74;93.83;99077.69;1705560;83;21068;-69
2022/01/01 03:10:06;;;;;;;3.83;3.23;;;;;;;6.80;94.06;99078.23;1671277;84;21170;-68
2022/01/01 03:12:33;;;;;;;4.43;4.13;;;;;;;6.86;94.05;99079.28;1665118;85;21062;-69
2022/01/01 03:15:00;;;;;;;4.63;4.27;;;;;;;6.90;94.00;99076.55;1654311;85;21046;-70
2022/01/01 03:17:27;;;;;;;3.37;3.08;;;;;;;6.95;94.13;99081.25;1669159;85;21046;-69
2022/01/01 03:19:53;;;;;;;4.45;3.87;;;;;;;7.01;94.08;99085.27;1675815;85;21074;-68
2022/01/01 03:22:19;;;;;;;3.37;3.17;;;;;;;7.07;94.15;99084.19;1657747;85;21022;-68
2022/01/01 03:24:45;;;;;;;4.03;3.75;;;;;;;7.10;94.26;99079.31;1655458;85;21106;-69
2022/01/01 03:27:11;;;;;;;5.00;3.90;;;;;;;7.13;93.84;99074.11;1654585;85;21007;-69
2022/01/01 03:29:38;;;;;;;4.47;3.93;;;;;;;7.16;93.83;99079.84;1689926;84;21023;-67
2022/01/01 03:32:06;;;;;;;;;;;;;;;7.20;93.75;99082.41;1705294;84;21165;-70
2022/01/01 03:34:34;;;;;;;4.83;4.30;;;;;;;7.22;93.72;99080.89;1702716;83;20127;-68
2022/01/01 03:37:00;;;;;;;5.47;5.05;;;;;;;7.18;94.33;99079.14;1702977;84;21010;-69
2022/01/01 03:39:27;;;;;;;4.50;4.10;;;;;;;7.26;94.62;99082.64;1705015;84;21567;-68
2022/01/01 03:41:54;;;;;;;4.53;4.10;;;;;;;7.38;94.43;99086.34;1703556;84;21055;-70
2022/01/01 03:44:20;;;;;;;5.42;4.95;;;;;;;7.45;94.30;99087.19;1700332;83;21114;-69
2022/01/01 03:46:47;;;;;;;4.05;3.75;;;;;;;7.52;94.27;99095.19;1696778;84;21058;-69
2022/01/01 03:49:14;;;;;;;4.13;3.73;;;;;;;7.60;94.14;99091.83;1679873;84;21124;-69
2022/01/01 03:51:41;;;;;;;4.93;4.57;;;;;;;7.67;94.10;99092.38;1691063;84;21050;-69
2022/01/01 03:54:07;;;;;;;5.70;5.23;;;;;;;7.73;94.05;99092.89;1706994;84;21067;-70
2022/01/01 03:56:37;;;;;;;4.67;4.27;;;;;;;7.74;94.16;99091.38;1670483;84;21016;-70
2022/01/01 03:59:03;;;;;;;5.30;4.90;;;;;;;7.77;94.01;99088.30;1688657;84;21074;-69
2022/01/01 04:01:30;;;;;;;4.17;3.87;;;;;;;7.85;93.58;99096.58;1699198;84;21054;-70
2022/01/01 04:03:56;;;;;;;3.92;3.58;;;;;;;7.90;93.37;99093.34;1692620;84;21134;-69
2022/01/01 04:06:22;;;;;;;4.22;3.92;;;;;;;7.95;93.19;99094.89;1702882;84;21052;-70
2022/01/01 04:08:48;;;;;;;;;;;;;;;7.99;93.09;99102.23;1689156;83;21027;-68
2022/01/01 04:11:14;;;;;;;3.37;3.17;;;;;;;8.05;93.01;99097.14;1683461;84;20124;-69
2022/01/01 04:13:41;;;;;;;5.30;4.90;;;;;;;8.05;92.80;99109.08;1704335;84;20996;-73
2022/01/01 04:16:11;;;;;;;6.60;6.00;;;;;;;8.02;92.85;99110.28;1680614;84;21096;-69
2022/01/01 04:18:39;;;;;;;5.03;4.63;;;;;;;8.00;92.94;99114.98;1682842;84;21015;-70
2022/01/01 04:21:09;;;;;;;5.13;4.70;;;;;;;8.04;92.85;99110.90;1699042;84;21538;-69
2022/01/01 04:23:37;;;;;;;6.23;5.73;;;;;;;8.12;92.54;99110.72;1695060;83;21030;-71
2022/01/01 04:26:03;;;;;;;5.97;5.20;;;;;;;8.18;92.09;99113.89;1696650;84;21259;-68
2022/01/01 04:28:30;;;;;;;6.10;5.60;;;;;;;8.21;91.76;99115.31;1685826;84;21586;-72
2022/01/01 04:30:56;;;;;;;7.85;7.15;;;;;;;8.23;91.71;99113.30;1685742;84;20974;-69
2022/01/01 04:33:22;;;;;;;6.72;6.08;;;;;;;8.19;91.71;99114.21;1703894;84;21114;-70
2022/01/01 04:38:57;;;;;;;6.13;5.63;;;;;;;8.18;91.27;99117.06;1795392;79;22251;-70
2022/01/01 04:41:23;;;;;;;;;;;;;;;8.14;90.89;99121.14;1773965;80;21067;-71
2022/01/01 04:43:49;;;;;;;5.93;5.40;;;;;;;8.13;90.89;99124.28;1766346;80;20130;-69
2022/01/01 04:46:16;;;;;;;5.70;5.20;;;;;;;8.09;91.13;99124.91;1730750;80;21037;-70
2022/01/01 04:48:42;;;;;;;5.95;5.35;;;;;;;8.12;91.30;99123.19;1717503;81;21065;-68
2022/01/01 04:51:10;;;;;;;;;;;;;;;8.13;91.39;99128.78;1726465;81;21068;-69
2022/01/01 04:53:39;;;;;;;6.87;6.20;;;;;;;8.09;91.49;99136.33;1723150;81;20229;-69
2022/01/01 04:56:07;;;;;;;5.60;5.20;;;;;;;8.01;91.81;99137.86;1731121;81;21013;-70
2022/01/01 04:58:35;;;;;;;6.10;5.20;;;;;;;8.02;91.75;99130.70;1687125;83;21024;-69
2022/01/01 05:01:01;;;;;;;5.50;5.00;;;;;;;8.06;91.51;99136.75;1682259;84;21046;-68
2022/01/01 05:03:27;;;;;;;5.20;4.75;;;;;;;8.09;91.26;99140.83;1675987;84;20990;-69
2022/01/01 05:05:54;;;;;;;4.90;4.43;;;;;;;8.10;91.24;99141.96;1675723;84;21062;-68
2022/01/01 05:08:20;;;;;;;5.58;3.92;;;;;;;8.12;91.38;99146.56;1671244;85;21529;-69
2022/01/01 05:10:46;;;;;;;4.58;4.20;;;;;;;8.13;91.50;99146.03;1682286;84;21077;-75
2022/01/01 05:13:14;;;;;;;;;;;;;;;8.10;91.60;99141.13;1688232;84;21194;-70
2022/01/01 05:15:40;;;;;;;3.92;3.47;;;;;;;8.05;91.67;99146.23;1703002;84;20194;-69
2022/01/01 05:18:06;;;;;;;3.70;3.40;;;;;;;8.05;91.85;99151.03;1687186;84;21123;-68
2022/01/01 05:20:33;;;;;;;3.50;3.30;;;;;;;8.14;91.60;99159.63;1720915;82;21062;-69
2022/01/01 05:22:59;;;;;;;3.80;3.50;;;;;;;8.18;91.48;99160.34;1670603;83;21342;-69
2022/01/01 05:25:25;;;;;;;3.70;3.50;;;;;;;8.23;91.35;99163.73;1658540;86;21058;-69
2022/01/01 05:27:53;;;;;;;4.27;3.97;;;;;;;8.21;91.02;99164.42;1637572;85;21064;-70
2022/01/01 05:30:19;;;;;;;3.98;3.67;;;;;;;8.18;91.25;99165.65;1656629;85;21595;-69
2022/01/01 05:32:45;;;;;;;3.25;3.05;;;;;;;8.16;91.29;99168.20;1658774;85;21072;-70
2022/01/01 05:35:11;;;;;;;2.98;2.65;;;;;;;8.15;91.02;99179.31;1645207;84;21511;-69
2022/01/01 05:37:39;;;;;;;3.00;2.80;;;;;;;8.21;90.76;99173.71;1642194;86;21045;-69
2022/01/01 05:40:07;;;;;;;;;;;;;;;8.21;90.48;99176.36;1638161;86;21121;-72
2022/01/01 05:42:33;;;;;;;2.50;2.37;;;;;;;8.22;90.39;99179.34;1650245;84;20140;-72
2022/01/01 05:44:59;;;;;;;2.98;2.72;;;;;;;8.22;90.40;99189.95;1653896;84;21575;-70
2022/01/01 05:47:25;;;;;;;;;;;;;;;8.21;90.42;99190.16;1685405;84;21112;-71
2022/01/01 05:49:51;;;;;;;2.47;2.27;;;;;;;8.18;90.44;99195.37;1676832;84;20163;-70
2022/01/01 05:52:17;;;;;;;1.87;1.77;;;;;;;8.07;90.56;99203.91;1678117;84;21078;-68
2022/01/01 05:54:43;;;;;;;1.65;1.10;;;;;;;8.04;90.39;99198.99;1692519;84;21010;-69
2022/01/01 05:57:10;;;;;;;1.37;1.12;;;;;;;8.08;90.10;99211.68;1642594;83;21056;-69
2022/01/01 05:59:40;;;;;;;0.60;0.60;;;;;;;8.10;89.79;99214.11;1658543;85;21141;-68
2022/01/01 06:02:04;;;;;;;1.87;1.30;;;;;;;8.08;89.27;99219.64;1657903;85;21000;-69
2022/01/01 06:04:30;;;;;;;1.42;1.32;;;;;;;8.05;89.33;99231.16;1658599;85;21032;-68
2022/01/01 06:06:57;;;;;;;1.77;1.67;;;;;;;8.03;89.57;99234.00;1656374;85;21034;-69
2022/01/01 06:09:23;;;;;;;1.32;0.95;;;;;;;8.00;89.58;99237.05;1656457;85;21043;-69
2022/01/01 06:11:49;;;;;;;0.85;0.85;;;;;;;7.98;89.41;99230.60;1647727;84;21025;-69
2022/01/01 06:14:16;;;;;;;0.90;0.90;;;;;;;7.99;88.76;99254.81;1647064;86;20985;-70
2022/01/01 06:16:42;;;;;;;0.47;0.47;;;;;;;7.97;88.44;99255.52;1664973;85;21074;-68
2022/01/01 06:19:08;;;;;;;1.22;1.12;;;;;;;7.94;88.24;99259.88;1670090;85;21037;-70
2022/01/01 06:21:35;;;;;;;0.60;0.60;;;;;;;7.88;88.29;99259.88;1660929;85;21070;-70
2022/01/01 06:24:01;;;;;;;0.55;0.37;;;;;;;7.80;88.62;99270.14;1657762;84;21262;-68
2022/01/01 06:26:26;;;;;;;0.20;0.20;;;;;;;7.73;88.80;99270.61;1659067;85;21046;-69
2022/01/01 06:28:53;;;;;;;0.72;0.10;;;;;;;7.71;88.76;99272.64;1663323;85;21119;-69
2022/01/01 06:31:19;;;;;;;0.40;0.40;;;;;;;7.74;88.51;99288.14;1658940;85;21037;-69
2022/01/01 06:33:45;;;;;;;1.30;0.45;;;;;;;7.75;88.27;99299.08;1660051;85;21028;-69
2022/01/01 06:36:12;;;;;;;0.20;0.20;;;;;;;7.78;88.19;99309.31;1659055;85;21096;-69
2022/01/01 06:38:42;;;;;;;0.50;0.20;;;;;;;7.76;88.07;99313.97;1672281;85;21057;-69
2022/01/01 06:41:09;;;;;;;0.67;0.20;;;;;;;7.71;88.29;99321.71;1650722;86;20986;-69
2022/01/01 06:43:35;;;;;;;0.30;0.10;;;;;;;7.66;88.12;99324.13;1647487;85;21203;-72
2022/01/01 06:46:02;;;;;;;0.20;0.20;;;;;;;7.64;88.23;99324.31;1640235;85;21118;-68
2022/01/01 06:48:28;;;;;;;0.25;0.10;;;;;;;7.72;88.05;99324.66;1669420;84;21090;-70
2022/01/01 06:50:55;;;;;;;0.17;0.10;;;;;;;7.75;87.94;99338.87;1648347;85;21063;-70
2022/01/01 06:53:21;;;;;;;0.28;0.28;;;;;;;7.79;87.94;99336.14;1654331;85;21034;-70
2022/01/01 06:55:47;;;;;;;0.42;0.30;;;;;;;7.82;87.69;99334.44;1648461;85;21140;-69
2022/01/01 06:58:13;;;;;;;0.30;0.20;;;;;;;7.77;87.38;99339.50;1650864;86;21033;-73
2022/01/01 07:00:40;;;;;;;0.30;0.20;;;;;;;7.67;87.49;99349.64;1635041;86;21522;-70
2022/01/01 07:03:07;;;;;;;0.20;0.17;;;;;;;7.65;87.64;99352.97;1637896;85;21101;-69
2022/01/01 07:05:34;;;;;;;0.40;0.27;;;;;;;7.62;87.39;99352.86;1646137;86;21058;-69
2022/01/01 07:08:00;;;;;;;0.20;0.20;;;;;;;7.58;87.31;99360.37;1650395;86;21085;-69
2022/01/01 07:10:26;;;;;;;0.20;0.20;;;;;;;7.58;87.47;99363.55;1642217;85;21031;-69
2022/01/01 07:12:53;;;;;;;0.20;0.10;;;;;;;7.58;87.56;99374.97;1619223;85;21116;-70
2022/01/01 07:15:19;;;;;;;0.17;0.10;;;;;;;7.56;87.60;99369.55;1637271;87;21061;-70
2022/01/01 07:17:46;;;;;;;0.10;0.10;;;;;;;7.50;87.65;99376.44;1611381;87;21053;-70
2022/01/01 07:20:12;;;;;;;0.50;0.10;;;;;;;7.46;87.79;99369.89;1616871;86;21013;-71
2022/01/01 07:22:41;;;;;;;0.10;0.00;;;;;;;7.47;87.61;99384.77;1633224;84;21041;-70
2022/01/01 07:25:09;;;;;;;0.10;0.10;;;;;;;7.51;87.35;99390.00;1675703;84;21144;-71
2022/01/01 07:27:36;;;;;;;0.30;0.10;;;;;;;7.52;86.99;99396.14;1675824;84;21029;-70
2022/01/01 07:30:04;;;;;;;0.13;0.10;;;;;;;7.53;86.96;99397.25;1662135;84;21013;-71
2022/01/01 07:32:31;;;;;;;0.20;0.10;;;;;;;7.53;87.13;99402.55;1673449;84;21028;-70
2022/01/01 07:34:57;;;;;;;0.20;0.10;;;;;;;7.51;87.20;99399.28;1662681;84;21009;-70
2022/01/01 07:37:23;;;;;;;0.10;0.10;;;;;;;7.47;86.96;99398.54;1664331;84;21105;-71
2022/01/01 07:39:49;;;;;;;0.03;0.03;;;;;;;7.45;86.70;99405.35;1655993;85;21073;-70
2022/01/01 07:42:15;;;;;;;0.20;0.10;;;;;;;7.51;86.81;99402.45;1659925;84;20981;-70
2022/01/01 07:44:41;;;;;;;0.95;0.20;;;;;;;7.57;86.71;99405.65;1661318;84;21033;-69
2022/01/01 07:47:07;;;;;;;0.10;0.10;;;;;;;7.59;86.68;99402.30;1663792;84;21004;-71
2022/01/01 07:49:34;;;;;;;0.20;0.10;;;;;;;7.55;86.59;99407.19;1676949;84;21110;-70
2022/01/01 07:52:00;;;;;;;0.20;0.10;;;;;;;7.51;86.64;99403.25;1668101;84;21089;-70
2022/01/01 07:54:26;;;;;;;0.20;0.10;;;;;;;7.52;86.71;99400.94;1657256;84;21017;-71
2022/01/01 07:56:52;;;;;;;0.10;0.10;;;;;;;7.61;86.55;99398.97;1675161;85;21099;-72
2022/01/01 07:59:18;;;;;;;3.10;0.10;;;;;;;7.67;86.36;99402.17;1659789;85;21061;-73
2022/01/01 08:01:44;;;;;;;1.92;0.10;;;;;;;7.67;86.06;99408.00;1680211;84;21005;-71
2022/01/01 08:04:11;;;;;;;0.40;0.00;;;;;;;7.61;86.11;99416.21;1679206;85;21044;-70
2022/01/01 08:06:37;;;;;;;2.17;0.10;;;;;;;7.53;86.24;99418.47;1671085;85;21049;-69
2022/01/01 08:09:04;;;;;;;0.00;0.00;;;;;;;7.52;86.43;99414.19;1658737;85;21084;-70
2022/01/01 08:11:31;;;;;;;0.10;0.00;;;;;;;7.58;86.06;99412.09;1612217;86;21102;-70
2022/01/01 08:13:59;;;;;;;0.10;0.00;;;;;;;7.58;85.57;99417.40;1593209;88;21029;-70
2022/01/01 08:16:26;;;;;;;0.30;0.00;;;;;;;7.57;85.26;99418.91;1631321;86;21137;-71
2022/01/01 08:18:52;;;;;;;;;;;;;;;7.43;84.97;99419.31;1625425;86;21057;-70
2022/01/01 08:21:18;;;;;;;0.00;0.00;;;;;;;7.34;85.26;99420.45;1631265;86;20158;-68
2022/01/01 08:23:46;;;;;;;0.07;0.00;;;;;;;7.34;85.52;99425.75;1659399;85;21548;-72
2022/01/01 08:26:12;;;;;;;0.45;0.00;;;;;;;7.36;85.60;99426.38;1655656;85;21000;-70
2022/01/01 08:28:39;;;;;;;1.13;0.23;;;;;;;7.34;85.62;99431.86;1654694;85;21005;-70
2022/01/01 08:31:07;;;;;;;0.13;0.00;;;;;;;7.31;85.89;99426.95;1655706;85;21104;-71
2022/01/01 08:33:34;;;;;;;0.33;0.10;;;;;;;7.30;86.06;99439.07;1643059;85;21680;-70
2022/01/01 08:36:03;;;;;;;0.65;0.37;;;;;;;7.31;86.03;99436.72;1659744;85;21552;-73
2022/01/01 08:38:32;;;;;;;0.10;0.00;;;;;;;7.36;85.88;99445.74;1635313;86;21648;-71
2022/01/01 08:40:59;;;;;;;0.17;0.10;;;;;;;7.42;86.07;99442.84;1646092;86;21033;-70
2022/01/01 08:43:25;;;;;;;0.10;0.10;;;;;;;7.46;86.12;99442.80;1643679;86;21417;-71
2022/01/01 08:45:51;;;;;;;0.10;0.10;;;;;;;7.49;86.22;99450.36;1655141;85;21040;-70
2022/01/01 08:48:17;;;;;;;0.50;0.00;;;;;;;7.46;86.29;99456.06;1652693;85;21190;-69
2022/01/01 08:50:43;;;;;;;0.42;0.00;;;;;;;7.39;86.45;99453.33;1650385;85;21081;-71
2022/01/01 08:53:10;;;;;;;0.20;0.10;;;;;;;7.37;86.65;99453.22;1658568;85;21067;-72
2022/01/01 08:55:36;;;;;;;0.20;0.10;;;;;;;7.38;86.87;99444.23;1657734;85;21107;-71
2022/01/01 08:58:03;;;;;;;0.33;0.33;;;;;;;7.46;86.70;99452.09;1649922;85;21127;-70
2022/01/01 09:00:29;;;;;;;0.20;0.10;;;;;;;7.51;86.85;99454.16;1642956;85;21143;-71
2022/01/01 09:02:55;;;;;;;;;;;;;;;7.58;86.72;99457.17;1637415;86;21083;-73
2022/01/01 09:05:22;;;;;;;0.10;0.00;;;;;;;7.58;86.40;99454.52;1634737;86;20195;-70
2022/01/01 09:07:48;;;;;;;;;;;;;;;7.50;86.46;99456.50;1654794;86;21553;-70
2022/01/01 09:10:15;;;;;;;0.20;0.00;;;;;;;7.46;86.31;99465.34;1635407;86;20133;-69
2022/01/01 09:12:41;;;;;;;0.20;0.03;;;;;;;7.37;86.45;99461.98;1664152;84;20989;-70
2022/01/01 09:15:12;;;;;;;1.83;0.10;;;;;;;7.35;86.17;99458.70;1679226;84;21493;-72
2022/01/01 09:17:39;;;;;;;0.20;0.00;;;;;;;7.38;86.32;99460.14;1674849;84;21025;-73
2022/01/01 09:20:07;;;;;;;0.75;0.10;;;;;;;7.42;86.32;99466.70;1676375;84;21548;-73
2022/01/01 09:22:35;;;;;;;1.07;0.10;;;;;;;7.45;86.21;99462.88;1668207;84;21093;-71
2022/01/01 09:25:01;;;;;;;0.30;0.10;;;;;;;7.45;86.44;99457.58;1652835;85;21047;-71
2022/01/01 09:27:29;;;;;;;0.83;0.20;;;;;;;7.43;86.59;99454.29;1645667;85;21637;-70
2022/01/01 09:29:55;;;;;;;;;;;;;;;7.37;86.39;99454.54;1656764;85;21131;-72
2022/01/01 09:32:21;;;;;;;0.33;0.13;;;;;;;7.40;86.37;99459.45;1656393;85;20426;-70
2022/01/01 09:34:49;;;;;;;0.40;0.10;;;;;;;7.42;85.89;99460.08;1656565;84;21008;-69
2022/01/01 09:37:16;;;;;;;0.20;0.10;;;;;;;7.48;85.40;99465.97;1642815;84;21133;-74
2022/01/01 09:39:42;;;;;;;0.10;0.10;;;;;;;7.52;85.33;99467.74;1639460;84;21612;-71
2022/01/01 09:42:11;;;;;;;0.10;0.10;;;;;;;7.51;84.74;99468.22;1657094;85;21124;-70
2022/01/01 09:44:38;;;;;;;0.63;0.23;;;;;;;7.47;84.59;99469.62;1650908;85;21597;-71
2022/01/01 09:47:05;;;;;;;0.30;0.10;;;;;;;7.48;84.32;99471.75;1616589;85;21033;-71
2022/01/01 09:49:31;;;;;;;0.65;0.40;;;;;;;7.51;84.24;99468.73;1651755;85;21001;-72
2022/01/01 09:51:58;;;;;;;0.40;0.40;;;;;;;7.56;84.13;99484.39;1677057;83;21044;-72
2022/01/01 09:54:24;;;;;;;0.67;0.50;;;;;;;7.57;84.01;99479.42;1657023;83;21020;-70
2022/01/01 09:56:51;;;;;;;1.00;0.33;;;;;;;7.53;83.99;99482.63;1671744;82;21663;-70
2022/01/01 09:59:17;;;;;;;0.90;0.30;;;;;;;7.41;84.08;99480.98;1668345;83;21551;-70
2022/01/01 10:01:43;;;;;;;0.30;0.20;;;;;;;7.38;84.43;99486.17;1685905;83;21508;-71
2022/01/01 10:04:14;;;;;;;;;;;;;;;7.40;84.64;99471.38;1678827;83;21368;-72
2022/01/01 10:06:42;;;;;;;0.50;0.20;;;;;;;7.43;84.31;99480.29;1685292;83;20172;-70
2022/01/01 10:09:09;;;;;;;0.40;0.10;;;;;;;7.35;84.35;99485.73;1692795;83;21636;-71
2022/01/01 10:11:36;;;;;;;0.20;0.10;;;;;;;7.31;84.59;99477.81;1692884;82;22074;-72
2022/01/01 10:14:07;;;;;;;0.70;0.20;;;;;;;7.30;84.44;99477.51;1656160;85;21613;-72
2022/01/01 10:16:44;;;;;;;0.10;0.10;;;;;;;7.32;84.42;99478.95;1654312;86;21122;-70
2022/01/01 10:19:10;;;;;;;0.60;0.20;;;;;;;7.41;84.24;99475.69;1692099;83;21016;-70
2022/01/01 10:21:41;;;;;;;0.23;0.23;;;;;;;7.44;84.13;99479.30;1646884;85;21611;-73
2022/01/01 10:24:14;;;;;;;1.43;0.10;;;;;;;7.49;84.00;99470.25;1703056;82;21021;-74
2022/01/01 10:29:30;;;;;;;0.30;0.20;;;;;;;7.50;83.89;99463.95;1698630;82;21051;-71
2022/01/01 10:32:10;;;;;;;1.07;0.30;;;;;;;7.50;83.67;99473.23;1718878;82;21119;-71
2022/01/01 10:34:46;;;;;;;0.87;0.30;;;;;;;7.55;83.57;99474.81;1712608;82;21130;-70
2022/01/01 10:37:14;;;;;;;0.83;0.40;;;;;;;7.66;83.24;99472.66;1714034;82;21005;-71
2022/01/01 10:39:54;;;;;;;0.50;0.50;;;;;;;7.71;82.89;99476.89;1725374;82;21093;-71
2022/01/01 10:42:21;;;;;;;1.30;0.30;;;;;;;7.69;82.40;99470.95;1721512;82;21061;-70
2022/01/01 10:44:51;;;;;;;0.83;0.10;;;;;;;7.60;82.71;99475.56;1713977;81;21029;-72
2022/01/01 10:47:26;;;;;;;1.37;0.30;;;;;;;7.54;83.17;99471.83;1709574;82;21036;-72
2022/01/01 10:52:29;;;;;;;1.27;0.10;;;;;;;7.70;82.54;99473.91;1707937;82;21015;-76
2022/01/01 10:55:05;;;;;;;0.40;0.13;;;;;;;7.75;82.29;99475.48;1720821;82;20988;-71
2022/01/01 10:57:38;;;;;;;5.20;0.20;;;;;;;7.76;82.22;99481.09;1716218;82;21013;-72
2022/01/01 11:00:20;;;;;;;0.53;0.23;;;;;;;7.70;81.99;99488.50;1709525;82;21008;-69
2022/01/01 11:02:55;;;;;;;3.17;0.30;;;;;;;7.65;82.17;99490.89;1726106;82;21025;-71
2022/01/01 11:05:29;;;;;;;0.60;0.27;;;;;;;7.64;82.29;99491.91;1731219;82;21541;-70
2022/01/01 11:07:56;;;;;;;0.87;0.30;;;;;;;7.66;82.24;99491.22;1712929;82;22277;-70
2022/01/01 11:10:25;;;;;;;4.47;0.97;;;;;;;7.63;82.49;99484.95;1715068;82;21073;-70
2022/01/01 11:12:53;;;;;;;0.70;0.50;;;;;;;7.55;82.68;99486.75;1713783;83;20987;-71
2022/01/01 11:15:20;;;;;;;1.20;0.70;;;;;;;7.50;83.23;99494.95;1702152;83;21096;-72
2022/01/01 11:17:48;;;;;;;1.00;0.82;;;;;;;7.47;83.37;99491.34;1705237;83;20998;-72
2022/01/01 11:20:16;;;;;;;0.80;0.50;;;;;;;7.48;83.14;99487.19;1689747;83;20999;-70
2022/01/01 11:22:43;;;;;;;1.03;0.47;;;;;;;7.51;82.69;99488.63;1687322;82;21037;-71
2022/01/01 11:25:11;;;;;;;0.30;0.30;;;;;;;7.53;82.49;99483.44;1716561;82;21527;-72
2022/01/01 11:27:37;;;;;;;0.20;0.10;;;;;;;7.57;82.17;99490.03;1688626;83;21516;-71
2022/01/01 11:30:06;;;;;;;0.95;0.17;;;;;;;7.56;82.03;99494.19;1662119;84;21029;-72
2022/01/01 11:32:45;;;;;;;0.30;0.30;;;;;;;7.53;82.18;99489.25;1668066;84;21477;-70
2022/01/01 11:35:22;;;;;;;3.80;0.37;;;;;;;7.52;82.16;99491.09;1669333;84;21018;-71
2022/01/01 11:38:13;;;;;;;0.60;0.30;;;;;;;7.59;82.32;99485.36;1667394;84;21077;-71
2022/01/01 11:40:55;;;;;;;1.17;0.10;;;;;;;7.72;81.99;99489.13;1668160;84;21443;-72
2022/01/01 11:43:42;;;;;;;1.10;0.40;;;;;;;7.80;81.68;99490.34;1680259;84;20995;-72
2022/01/01 11:46:29;;;;;;;0.42;0.20;;;;;;;7.80;81.93;99490.34;1703740;82;21011;-72
2022/01/01 11:49:01;;;;;;;0.30;0.20;;;;;;;7.75;82.30;99486.10;1712033;82;21590;-72
2022/01/01 11:51:42;;;;;;;0.23;0.20;;;;;;;7.70;82.65;99489.82;1713673;82;21674;-70
2022/01/01 11:54:29;;;;;;;1.90;0.27;;;;;;;7.68;82.82;99486.54;1713253;82;21086;-72
2022/01/01 11:56:59;;;;;;;1.57;0.40;;;;;;;7.72;83.00;99487.31;1701211;82;21564;-72